Time;durP1;ratioP1;P1;durP2;ratioP2;P2;SDS_P1;SDS_P2;PMS_P1;PMS_P2;Temp;Humidity;BMP_temperature;BMP_pressure;BME280_temperature;BME280_humidity;BME280_pressure;Samples;Min_cycle;Max_cycle;Signal;HPM_P1;HPM_P2
2023/10/19 00:00:51;;;;;;;30.40;18.05;;;;;;;;;;5069749;28;20037;-59
2023/10/19 00:03:18;;;;;;;29.13;17.65;;;;;;;;;;5062643;28;20044;-59
2023/10/19 00:05:46;;;;;;;34.17;19.52;;;;;;;;;;5071183;28;20121;-59
2023/10/19 00:10:43;;;;;;;30.77;18.10;;;;;;;;;;5071654;28;20052;-59
2023/10/19 00:13:11;;;;;;;30.38;19.17;;;;;;;;;;5089840;28;20040;-59
2023/10/19 00:15:42;;;;;;;30.52;19.80;;;;;;;;;;5090079;28;20495;-59
2023/10/19 00:23:13;;;;;;;28.75;19.38;;;;;;;;;;5085462;28;21091;-60
2023/10/19 00:25:44;;;;;;;32.30;20.05;;;;;;;;;;5078391;28;20044;-60
2023/10/19 00:28:14;;;;;;;33.15;21.42;;;;;;;;;;5069389;28;20124;-60
2023/10/19 00:30:42;;;;;;;32.25;21.00;;;;;;;;;;5086521;28;20044;-60
2023/10/19 00:33:20;;;;;;;34.00;21.88;;;;;;;;;;5092481;28;20044;-59
2023/10/19 00:43:43;;;;;;;37.72;22.63;;;;;;;;;;5078907;28;20055;-60
2023/10/19 00:49:00;;;;;;;39.72;24.50;;;;;;;;;;5066318;28;20081;-59
2023/10/19 00:54:08;;;;;;;36.63;23.50;;;;;;;;;;5092403;28;20117;-59
2023/10/19 00:56:35;;;;;;;38.80;22.67;;;;;;;;;;5080103;28;20330;-59
2023/10/19 00:59:14;;;;;;;42.70;24.85;;;;;;;;;;5079333;28;20055;-59
2023/10/19 01:01:44;;;;;;;38.40;23.92;;;;;;;;;;5086337;28;20125;-59
2023/10/19 01:04:14;;;;;;;39.63;25.23;;;;;;;;;;5068093;28;20089;-59
2023/10/19 01:06:44;;;;;;;42.83;24.70;;;;;;;;;;5070267;28;20055;-59
2023/10/19 01:09:14;;;;;;;42.47;25.02;;;;;;;;;;5069026;28;20400;-59
2023/10/19 01:11:45;;;;;;;41.75;26.52;;;;;;;;;;5071797;28;20048;-59
2023/10/19 01:14:21;;;;;;;49.60;26.65;;;;;;;;;;5069839;28;20119;-59
2023/10/19 01:16:49;;;;;;;43.55;26.00;;;;;;;;;;5071279;28;20043;-59
2023/10/19 01:19:20;;;;;;;42.58;26.98;;;;;;;;;;5070499;28;20510;-59
2023/10/19 01:21:51;;;;;;;42.25;24.92;;;;;;;;;;5071057;28;20047;-59
2023/10/19 01:24:21;;;;;;;44.60;25.85;;;;;;;;;;5070624;28;20040;-59
2023/10/19 01:26:47;;;;;;;41.60;25.15;;;;;;;;;;5070845;28;20460;-59
2023/10/19 01:29:14;;;;;;;43.22;26.85;;;;;;;;;;5071559;28;20514;-60
2023/10/19 01:31:55;;;;;;;43.38;26.65;;;;;;;;;;5070487;28;20507;-59
2023/10/19 01:34:22;;;;;;;46.50;28.20;;;;;;;;;;5072067;28;20155;-59
2023/10/19 01:36:54;;;;;;;45.70;27.02;;;;;;;;;;5069079;28;20101;-59
2023/10/19 01:39:20;;;;;;;50.75;27.95;;;;;;;;;;5069214;28;20137;-59
2023/10/19 01:41:49;;;;;;;43.88;25.92;;;;;;;;;;5070270;28;20471;-59
2023/10/19 01:44:16;;;;;;;45.92;27.08;;;;;;;;;;5070611;28;20333;-59
2023/10/19 01:46:43;;;;;;;46.63;27.85;;;;;;;;;;5074925;28;20046;-59
2023/10/19 01:49:10;;;;;;;43.28;26.98;;;;;;;;;;5081781;28;20039;-59
2023/10/19 01:51:39;;;;;;;48.53;28.35;;;;;;;;;;5066642;28;20124;-60
2023/10/19 01:54:07;;;;;;;47.13;28.88;;;;;;;;;;5081659;28;20092;-59
2023/10/19 01:56:35;;;;;;;44.95;29.55;;;;;;;;;;5085490;28;20521;-59
2023/10/19 01:59:03;;;;;;;51.25;29.23;;;;;;;;;;5074920;28;20515;-59
2023/10/19 02:01:30;;;;;;;47.05;28.70;;;;;;;;;;5075272;28;20403;-59
2023/10/19 02:03:58;;;;;;;51.10;30.85;;;;;;;;;;5068558;28;20048;-59
2023/10/19 02:06:35;;;;;;;49.13;28.77;;;;;;;;;;5077965;28;20037;-59
2023/10/19 02:09:27;;;;;;;50.70;28.13;;;;;;;;;;5084239;28;20089;-59
2023/10/19 02:11:53;;;;;;;46.90;28.23;;;;;;;;;;5076687;28;20113;-59
2023/10/19 02:14:19;;;;;;;45.42;27.38;;;;;;;;;;5085900;28;20403;-59
2023/10/19 02:16:53;;;;;;;47.15;28.10;;;;;;;;;;5074141;28;20068;-59
2023/10/19 02:19:20;;;;;;;46.63;29.38;;;;;;;;;;5073879;28;20098;-59
2023/10/19 02:21:50;;;;;;;46.50;27.25;;;;;;;;;;5081752;28;20040;-60
2023/10/19 02:24:16;;;;;;;52.08;28.65;;;;;;;;;;5085471;28;20079;-60
2023/10/19 02:26:46;;;;;;;46.60;27.35;;;;;;;;;;5073604;28;20515;-59
2023/10/19 02:29:13;;;;;;;43.53;26.75;;;;;;;;;;5083335;28;20503;-60
2023/10/19 02:31:42;;;;;;;42.17;24.75;;;;;;;;;;5085475;28;20113;-60
2023/10/19 02:34:12;;;;;;;44.47;25.77;;;;;;;;;;5075676;28;20424;-60
2023/10/19 02:36:40;;;;;;;45.20;25.27;;;;;;;;;;5075485;28;20045;-60
2023/10/19 02:39:10;;;;;;;41.70;24.73;;;;;;;;;;5077945;28;20045;-60
2023/10/19 02:41:37;;;;;;;42.88;25.15;;;;;;;;;;5078849;28;20183;-60
2023/10/19 02:46:32;;;;;;;36.28;22.25;;;;;;;;;;5070245;28;20123;-60
2023/10/19 02:49:13;;;;;;;32.10;20.85;;;;;;;;;;5070386;28;20167;-60
2023/10/19 02:51:46;;;;;;;36.20;21.45;;;;;;;;;;5067306;28;20623;-60
2023/10/19 02:54:56;;;;;;;32.97;20.08;;;;;;;;;;5069814;28;20103;-60
2023/10/19 02:57:06;;;;;;;33.22;19.85;;;;;;;;;;5068381;28;20392;-60
2023/10/19 02:59:33;;;;;;;28.98;18.33;;;;;;;;;;5073398;28;20094;-60
2023/10/19 03:04:39;;;;;;;36.00;18.60;;;;;;;;;;5073798;28;20052;-60
2023/10/19 03:07:07;;;;;;;29.50;17.85;;;;;;;;;;5073640;28;20062;-60
2023/10/19 03:09:36;;;;;;;31.30;18.00;;;;;;;;;;5070877;28;20044;-60
2023/10/19 03:12:04;;;;;;;31.02;17.38;;;;;;;;;;5073583;28;20052;-60
2023/10/19 03:14:30;;;;;;;30.83;17.92;;;;;;;;;;5072473;28;20594;-60
2023/10/19 03:16:59;;;;;;;30.35;17.40;;;;;;;;;;5073715;28;20090;-60
2023/10/19 03:19:25;;;;;;;25.60;16.55;;;;;;;;;;5073166;28;20399;-60
2023/10/19 03:21:52;;;;;;;27.33;16.77;;;;;;;;;;5074938;28;20076;-60
2023/10/19 03:27:22;;;;;;;28.10;16.08;;;;;;;;;;5075051;28;20044;-60
2023/10/19 03:29:54;;;;;;;27.75;17.02;;;;;;;;;;5073677;28;20474;-60
2023/10/19 03:32:22;;;;;;;27.00;15.63;;;;;;;;;;5073215;28;20408;-60
2023/10/19 03:34:50;;;;;;;27.15;15.60;;;;;;;;;;5072483;28;20120;-60
2023/10/19 03:37:19;;;;;;;27.33;16.20;;;;;;;;;;5070726;28;20181;-60
2023/10/19 03:39:45;;;;;;;26.65;15.98;;;;;;;;;;5073695;28;20057;-60
2023/10/19 03:42:13;;;;;;;24.70;14.70;;;;;;;;;;5073140;28;20389;-60
2023/10/19 03:47:19;;;;;;;23.60;13.65;;;;;;;;;;5072636;28;20036;-60
2023/10/19 03:49:46;;;;;;;21.90;12.70;;;;;;;;;;5070407;28;20728;-60
2023/10/19 03:54:39;;;;;;;21.08;13.02;;;;;;;;;;5072574;28;20059;-60
2023/10/19 03:57:10;;;;;;;19.50;11.93;;;;;;;;;;5069941;28;20040;-60
2023/10/19 03:59:37;;;;;;;22.67;12.98;;;;;;;;;;5072395;28;20146;-60
2023/10/19 04:02:13;;;;;;;21.90;12.73;;;;;;;;;;5072237;28;20484;-60
2023/10/19 04:05:02;;;;;;;17.63;11.90;;;;;;;;;;5069596;28;20058;-60
2023/10/19 04:07:31;;;;;;;20.70;12.25;;;;;;;;;;5069792;28;20099;-60
2023/10/19 04:12:35;;;;;;;21.98;12.00;;;;;;;;;;5070541;28;20080;-60
2023/10/19 04:15:18;;;;;;;19.83;12.60;;;;;;;;;;5070113;28;20046;-60
2023/10/19 04:17:45;;;;;;;20.85;12.80;;;;;;;;;;5069621;28;20183;-60
2023/10/19 04:22:47;;;;;;;22.70;13.00;;;;;;;;;;5070423;28;20056;-60
2023/10/19 04:25:13;;;;;;;23.10;13.32;;;;;;;;;;5072253;28;20036;-60
2023/10/19 04:27:41;;;;;;;23.58;13.77;;;;;;;;;;5070343;28;21314;-60
2023/10/19 04:30:15;;;;;;;24.98;14.57;;;;;;;;;;5070787;28;20156;-60
2023/10/19 04:32:42;;;;;;;21.23;13.32;;;;;;;;;;5068310;28;20512;-60
2023/10/19 04:35:13;;;;;;;25.75;14.65;;;;;;;;;;5067545;28;20045;-60
2023/10/19 04:37:42;;;;;;;26.50;14.18;;;;;;;;;;5070134;28;20037;-60
2023/10/19 04:40:11;;;;;;;26.40;15.15;;;;;;;;;;5069417;28;20048;-60
2023/10/19 04:42:38;;;;;;;24.27;14.30;;;;;;;;;;5072110;28;20442;-60
2023/10/19 04:45:05;;;;;;;23.85;14.52;;;;;;;;;;5079211;28;20028;-60
2023/10/19 04:47:33;;;;;;;23.67;13.95;;;;;;;;;;5082134;28;20070;-60
2023/10/19 04:49:59;;;;;;;22.17;13.35;;;;;;;;;;5091551;28;20407;-60
2023/10/19 04:52:25;;;;;;;24.75;14.07;;;;;;;;;;5073279;28;20480;-59
2023/10/19 04:54:51;;;;;;;22.88;13.30;;;;;;;;;;5064313;28;20078;-60
2023/10/19 04:57:17;;;;;;;23.70;14.93;;;;;;;;;;5059347;28;20135;-60
2023/10/19 04:59:45;;;;;;;23.30;13.95;;;;;;;;;;5087707;28;20036;-60
2023/10/19 05:02:11;;;;;;;26.33;14.50;;;;;;;;;;5091552;28;20047;-60
2023/10/19 05:04:37;;;;;;;24.17;12.88;;;;;;;;;;5084347;28;20055;-60
2023/10/19 05:07:04;;;;;;;25.30;13.68;;;;;;;;;;5090608;28;20044;-60
2023/10/19 05:09:30;;;;;;;23.10;14.13;;;;;;;;;;5062973;28;20382;-60
2023/10/19 05:11:57;;;;;;;29.63;14.07;;;;;;;;;;5073977;28;20040;-60
2023/10/19 05:14:23;;;;;;;24.80;13.02;;;;;;;;;;5081248;28;20131;-60
2023/10/19 05:16:49;;;;;;;25.00;13.65;;;;;;;;;;5087139;28;20064;-60
2023/10/19 05:19:16;;;;;;;21.70;12.77;;;;;;;;;;5080108;28;20036;-60
2023/10/19 05:21:43;;;;;;;22.92;13.00;;;;;;;;;;5075153;28;20053;-60
2023/10/19 05:24:09;;;;;;;22.55;12.98;;;;;;;;;;5088158;28;20051;-60
2023/10/19 05:26:35;;;;;;;22.05;13.15;;;;;;;;;;5083450;28;20195;-60
2023/10/19 05:29:02;;;;;;;22.30;13.10;;;;;;;;;;5084003;28;20060;-60
2023/10/19 05:31:30;;;;;;;20.88;11.77;;;;;;;;;;5091134;28;20048;-60
2023/10/19 05:33:57;;;;;;;21.77;12.07;;;;;;;;;;5072193;28;20097;-60
2023/10/19 05:36:24;;;;;;;19.77;12.02;;;;;;;;;;5059217;28;20378;-60
2023/10/19 05:38:51;;;;;;;21.27;11.68;;;;;;;;;;5061832;28;20060;-60
2023/10/19 05:41:18;;;;;;;18.65;10.63;;;;;;;;;;5059587;28;20456;-60
2023/10/19 05:43:44;;;;;;;19.15;11.38;;;;;;;;;;5057647;28;20127;-60
2023/10/19 05:46:10;;;;;;;16.75;10.20;;;;;;;;;;5060741;28;20040;-60
2023/10/19 05:48:37;;;;;;;18.02;11.10;;;;;;;;;;5059866;28;20448;-60
2023/10/19 05:51:03;;;;;;;16.98;10.50;;;;;;;;;;5058110;28;20041;-60
2023/10/19 05:53:30;;;;;;;20.77;12.25;;;;;;;;;;5061073;28;20041;-60
2023/10/19 05:55:56;;;;;;;16.30;10.27;;;;;;;;;;5063345;28;20400;-60
2023/10/19 05:58:22;;;;;;;16.52;10.68;;;;;;;;;;5060918;28;20060;-60
2023/10/19 06:00:51;;;;;;;19.77;11.70;;;;;;;;;;5062738;28;20484;-60
2023/10/19 06:03:19;;;;;;;20.10;11.40;;;;;;;;;;5060618;28;20045;-60
2023/10/19 06:05:45;;;;;;;25.60;12.75;;;;;;;;;;5060932;28;20036;-59
2023/10/19 06:08:13;;;;;;;19.75;11.27;;;;;;;;;;5061169;28;20416;-60
2023/10/19 06:10:40;;;;;;;25.10;12.30;;;;;;;;;;5063216;28;20412;-60
2023/10/19 06:13:09;;;;;;;20.73;11.80;;;;;;;;;;5062541;28;20172;-60
2023/10/19 06:15:35;;;;;;;21.90;11.85;;;;;;;;;;5063432;28;20407;-60
2023/10/19 06:18:03;;;;;;;18.15;10.65;;;;;;;;;;5066163;28;20040;-60
2023/10/19 06:20:29;;;;;;;18.27;11.80;;;;;;;;;;5084934;28;20114;-60
2023/10/19 06:23:03;;;;;;;18.80;11.23;;;;;;;;;;5087304;28;20044;-60
2023/10/19 06:25:30;;;;;;;19.27;11.05;;;;;;;;;;5084313;28;20485;-60
2023/10/19 06:27:57;;;;;;;18.27;11.98;;;;;;;;;;5089574;28;20460;-60
2023/10/19 06:30:23;;;;;;;19.40;11.85;;;;;;;;;;5077697;28;20074;-59
2023/10/19 06:32:51;;;;;;;16.65;10.98;;;;;;;;;;5079718;28;20376;-60
2023/10/19 06:35:18;;;;;;;20.05;12.65;;;;;;;;;;5062861;28;20045;-60
2023/10/19 06:37:44;;;;;;;16.23;11.10;;;;;;;;;;5061272;28;20106;-60
2023/10/19 06:40:17;;;;;;;20.08;12.82;;;;;;;;;;5061212;28;20060;-60
2023/10/19 06:42:47;;;;;;;18.90;11.45;;;;;;;;;;5062632;28;20051;-60
2023/10/19 06:45:13;;;;;;;20.75;12.50;;;;;;;;;;5062500;28;20045;-60
2023/10/19 06:47:44;;;;;;;21.58;13.07;;;;;;;;;;5060626;28;20064;-60
2023/10/19 06:50:11;;;;;;;18.05;11.88;;;;;;;;;;5062600;28;20076;-60
2023/10/19 06:52:38;;;;;;;18.67;11.27;;;;;;;;;;5062226;28;20049;-60
2023/10/19 06:55:05;;;;;;;16.98;11.38;;;;;;;;;;5060572;28;20404;-60
2023/10/19 06:57:32;;;;;;;18.35;11.13;;;;;;;;;;5060657;28;20391;-60
2023/10/19 06:59:59;;;;;;;17.33;11.05;;;;;;;;;;5061580;28;20053;-60
2023/10/19 07:02:26;;;;;;;16.40;10.38;;;;;;;;;;5061667;28;20056;-60
2023/10/19 07:04:52;;;;;;;15.68;10.18;;;;;;;;;;5058309;28;20037;-60
2023/10/19 07:07:18;;;;;;;16.70;10.45;;;;;;;;;;5081512;28;20059;-60
2023/10/19 07:09:44;;;;;;;16.25;10.63;;;;;;;;;;5073107;28;20041;-60
2023/10/19 07:12:11;;;;;;;16.20;10.05;;;;;;;;;;5070869;28;20400;-60
2023/10/19 07:14:38;;;;;;;15.57;10.32;;;;;;;;;;5086774;28;20056;-60
2023/10/19 07:17:05;;;;;;;13.55;10.13;;;;;;;;;;5083623;28;20040;-60
2023/10/19 07:19:31;;;;;;;16.33;10.13;;;;;;;;;;5090112;28;20424;-60
2023/10/19 07:21:57;;;;;;;16.83;10.27;;;;;;;;;;5089594;28;20546;-60
2023/10/19 07:24:24;;;;;;;15.27;10.35;;;;;;;;;;5090231;28;20044;-60
2023/10/19 07:27:03;;;;;;;18.60;10.60;;;;;;;;;;5090425;28;20032;-60
2023/10/19 07:29:30;;;;;;;15.43;10.57;;;;;;;;;;5084232;28;20060;-60
2023/10/19 07:31:58;;;;;;;15.30;10.57;;;;;;;;;;5090179;28;20439;-60
2023/10/19 07:34:30;;;;;;;18.05;10.88;;;;;;;;;;5071539;28;20044;-60
2023/10/19 07:36:58;;;;;;;16.65;10.48;;;;;;;;;;5058013;28;20052;-60
2023/10/19 07:39:29;;;;;;;17.58;10.73;;;;;;;;;;5060400;28;20052;-60
2023/10/19 07:41:56;;;;;;;16.77;10.75;;;;;;;;;;5066215;28;20527;-60
2023/10/19 07:44:22;;;;;;;17.05;10.57;;;;;;;;;;5072528;28;20096;-60
2023/10/19 07:46:49;;;;;;;14.85;10.25;;;;;;;;;;5073393;28;20036;-60
2023/10/19 07:49:15;;;;;;;20.05;10.88;;;;;;;;;;5070535;28;20499;-60
2023/10/19 07:51:47;;;;;;;15.77;10.95;;;;;;;;;;5072716;28;20051;-60
2023/10/19 07:54:14;;;;;;;19.67;11.05;;;;;;;;;;5073332;28;20112;-60
2023/10/19 07:56:40;;;;;;;16.63;11.18;;;;;;;;;;5072383;28;20037;-60
2023/10/19 07:59:07;;;;;;;17.10;11.20;;;;;;;;;;5073157;28;20044;-60
2023/10/19 08:01:33;;;;;;;19.15;11.05;;;;;;;;;;5072997;28;20124;-60
2023/10/19 08:03:59;;;;;;;15.75;10.40;;;;;;;;;;5071472;28;20084;-60
2023/10/19 08:06:26;;;;;;;17.55;11.05;;;;;;;;;;5072963;28;20048;-60
2023/10/19 08:08:55;;;;;;;17.00;12.13;;;;;;;;;;5065472;28;20450;-60
2023/10/19 08:11:21;;;;;;;18.00;11.35;;;;;;;;;;5059635;28;20041;-60
2023/10/19 08:13:49;;;;;;;18.60;11.10;;;;;;;;;;5059316;28;20045;-60
2023/10/19 08:16:16;;;;;;;17.70;12.00;;;;;;;;;;5064081;28;20416;-59
2023/10/19 08:18:42;;;;;;;18.08;11.95;;;;;;;;;;5066226;28;20037;-60
2023/10/19 08:21:09;;;;;;;16.13;11.05;;;;;;;;;;5087274;28;20405;-60
2023/10/19 08:23:35;;;;;;;19.77;12.23;;;;;;;;;;5082234;28;20044;-60
2023/10/19 08:26:05;;;;;;;17.75;11.38;;;;;;;;;;5090743;28;20110;-60
2023/10/19 08:28:32;;;;;;;16.42;11.43;;;;;;;;;;5092710;28;20082;-60
2023/10/19 08:31:02;;;;;;;17.83;12.85;;;;;;;;;;5092659;28;20048;-60
2023/10/19 08:33:29;;;;;;;18.52;12.63;;;;;;;;;;5089250;28;20052;-60
2023/10/19 08:35:59;;;;;;;19.38;12.18;;;;;;;;;;5074583;28;20071;-60
2023/10/19 08:38:26;;;;;;;19.83;12.93;;;;;;;;;;5073930;28;20052;-59
2023/10/19 08:40:53;;;;;;;18.80;12.07;;;;;;;;;;5081452;28;20141;-60
2023/10/19 08:43:21;;;;;;;18.58;11.60;;;;;;;;;;5092675;28;20462;-60
2023/10/19 08:45:47;;;;;;;21.75;12.95;;;;;;;;;;5092776;28;20040;-60
2023/10/19 08:48:14;;;;;;;17.70;11.85;;;;;;;;;;5090353;28;20522;-60
2023/10/19 08:50:43;;;;;;;19.83;12.45;;;;;;;;;;5092516;28;20153;-60
2023/10/19 08:53:09;;;;;;;20.42;12.23;;;;;;;;;;5085556;28;20040;-60
2023/10/19 08:55:36;;;;;;;24.13;13.75;;;;;;;;;;5092495;28;20047;-60
2023/10/19 08:58:05;;;;;;;21.73;12.85;;;;;;;;;;5092186;28;20047;-60
2023/10/19 09:00:46;;;;;;;19.75;12.52;;;;;;;;;;5091495;28;20047;-60
2023/10/19 09:03:13;;;;;;;22.20;12.55;;;;;;;;;;5086213;28;20152;-59
2023/10/19 09:05:40;;;;;;;23.33;12.40;;;;;;;;;;5062239;28;20052;-59
2023/10/19 09:08:07;;;;;;;20.83;12.18;;;;;;;;;;5059864;28;20163;-60
2023/10/19 09:10:36;;;;;;;22.70;13.13;;;;;;;;;;5060682;28;20405;-60
2023/10/19 09:13:09;;;;;;;19.20;11.85;;;;;;;;;;5059892;28;20040;-60
2023/10/19 09:15:39;;;;;;;25.90;13.43;;;;;;;;;;5061478;28;20135;-60
2023/10/19 09:18:21;;;;;;;22.40;12.85;;;;;;;;;;5062493;28;20097;-60
2023/10/19 09:21:07;;;;;;;24.67;12.98;;;;;;;;;;5064147;28;20353;-60
2023/10/19 09:23:34;;;;;;;20.45;12.10;;;;;;;;;;5061552;28;20179;-60
2023/10/19 09:26:05;;;;;;;18.92;12.52;;;;;;;;;;5063404;28;20119;-60
2023/10/19 09:28:36;;;;;;;20.38;12.57;;;;;;;;;;5062086;28;20400;-60
2023/10/19 09:31:03;;;;;;;25.80;14.23;;;;;;;;;;5079017;28;20132;-60
2023/10/19 09:33:29;;;;;;;23.00;13.18;;;;;;;;;;5084895;28;20088;-59
2023/10/19 09:36:00;;;;;;;24.70;13.80;;;;;;;;;;5088214;28;20067;-59
2023/10/19 09:38:27;;;;;;;24.95;14.32;;;;;;;;;;5091581;28;20063;-59
2023/10/19 09:40:54;;;;;;;29.55;15.13;;;;;;;;;;5091312;28;20052;-59
2023/10/19 09:43:38;;;;;;;25.02;13.38;;;;;;;;;;5083540;28;20442;-60
2023/10/19 09:46:09;;;;;;;26.13;14.88;;;;;;;;;;5091414;28;20040;-59
2023/10/19 09:48:41;;;;;;;27.00;14.63;;;;;;;;;;5081121;28;20044;-59
2023/10/19 09:51:09;;;;;;;28.20;15.07;;;;;;;;;;5081066;28;20407;-59
2023/10/19 09:53:35;;;;;;;24.90;14.98;;;;;;;;;;5080752;28;20156;-59
2023/10/19 09:56:04;;;;;;;24.80;14.40;;;;;;;;;;5071887;28;20064;-59
2023/10/19 09:58:34;;;;;;;23.88;15.05;;;;;;;;;;5084407;28;20484;-59
2023/10/19 10:01:11;;;;;;;27.23;15.35;;;;;;;;;;5091240;28;20454;-59
2023/10/19 10:03:47;;;;;;;26.77;15.55;;;;;;;;;;5080267;28;20063;-60
2023/10/19 10:06:20;;;;;;;31.98;16.98;;;;;;;;;;5070933;28;20128;-59
2023/10/19 10:08:47;;;;;;;25.98;15.90;;;;;;;;;;5069228;28;20120;-59
2023/10/19 10:11:18;;;;;;;28.27;16.65;;;;;;;;;;5061343;28;20041;-60
2023/10/19 10:13:45;;;;;;;30.48;16.75;;;;;;;;;;5067152;28;20038;-59
2023/10/19 10:16:15;;;;;;;29.50;16.95;;;;;;;;;;5065510;28;20063;-60
2023/10/19 10:18:42;;;;;;;28.05;16.98;;;;;;;;;;5063877;28;20128;-60
2023/10/19 10:21:11;;;;;;;32.97;18.15;;;;;;;;;;5065114;28;20123;-59
2023/10/19 10:23:43;;;;;;;25.73;17.05;;;;;;;;;;5065239;28;20393;-60
2023/10/19 10:26:10;;;;;;;29.88;18.08;;;;;;;;;;5064951;28;20444;-60
2023/10/19 10:28:36;;;;;;;28.77;16.63;;;;;;;;;;5063915;28;20082;-60
2023/10/19 10:31:18;;;;;;;32.78;16.73;;;;;;;;;;5063919;28;20049;-59
2023/10/19 10:33:47;;;;;;;31.40;17.48;;;;;;;;;;5065078;28;20068;-59
2023/10/19 10:36:17;;;;;;;28.38;18.00;;;;;;;;;;5067291;28;20052;-60
2023/10/19 10:38:44;;;;;;;29.05;18.23;;;;;;;;;;5069424;28;20055;-59
2023/10/19 10:41:10;;;;;;;28.40;16.75;;;;;;;;;;5069155;28;20193;-63
2023/10/19 10:43:52;;;;;;;28.52;17.38;;;;;;;;;;5069225;28;20112;-59
2023/10/19 10:46:19;;;;;;;24.48;15.43;;;;;;;;;;5069485;28;20074;-59
2023/10/19 10:48:48;;;;;;;29.92;16.75;;;;;;;;;;5068878;28;20036;-59
2023/10/19 10:51:18;;;;;;;26.48;15.50;;;;;;;;;;5070087;28;20623;-59
2023/10/19 10:53:46;;;;;;;23.75;16.33;;;;;;;;;;5069559;28;20475;-59
2023/10/19 10:56:12;;;;;;;26.13;15.95;;;;;;;;;;5069092;28;20045;-59
2023/10/19 10:58:39;;;;;;;23.85;14.30;;;;;;;;;;5070341;28;20119;-59
2023/10/19 11:01:06;;;;;;;25.65;15.70;;;;;;;;;;5069593;28;20040;-59
2023/10/19 11:03:32;;;;;;;24.23;14.57;;;;;;;;;;5068965;28;20128;-59
2023/10/19 11:06:07;;;;;;;22.85;14.95;;;;;;;;;;5069238;28;20094;-59
2023/10/19 11:08:34;;;;;;;25.40;14.23;;;;;;;;;;5068749;28;20064;-59
2023/10/19 11:11:11;;;;;;;24.27;14.88;;;;;;;;;;5070451;28;20400;-59
2023/10/19 11:13:38;;;;;;;22.73;14.35;;;;;;;;;;5069372;28;20044;-59
2023/10/19 11:16:05;;;;;;;21.65;14.70;;;;;;;;;;5070722;28;20041;-59
2023/10/19 11:18:33;;;;;;;24.83;14.95;;;;;;;;;;5073670;28;20053;-59
2023/10/19 11:21:05;;;;;;;23.52;14.05;;;;;;;;;;5092370;28;20044;-59
2023/10/19 11:23:42;;;;;;;25.83;14.50;;;;;;;;;;5094123;28;20047;-59
2023/10/19 11:26:09;;;;;;;21.58;14.57;;;;;;;;;;5084039;28;20082;-59
2023/10/19 11:28:42;;;;;;;22.15;14.32;;;;;;;;;;5093013;28;20423;-59
2023/10/19 11:31:13;;;;;;;23.13;14.10;;;;;;;;;;5093893;28;20127;-59
2023/10/19 11:33:41;;;;;;;24.15;13.80;;;;;;;;;;5093862;28;20040;-59
2023/10/19 11:36:08;;;;;;;22.88;13.30;;;;;;;;;;5083851;28;20044;-59
2023/10/19 11:38:35;;;;;;;23.85;15.07;;;;;;;;;;5091565;28;20468;-59
2023/10/19 11:41:03;;;;;;;24.00;14.57;;;;;;;;;;5089269;28;20047;-59
2023/10/19 11:43:29;;;;;;;24.45;14.73;;;;;;;;;;5093060;28;20174;-59
2023/10/19 11:45:56;;;;;;;23.60;14.88;;;;;;;;;;5081013;28;20117;-59
2023/10/19 11:48:22;;;;;;;23.58;13.57;;;;;;;;;;5085755;28;20127;-59
2023/10/19 11:50:48;;;;;;;22.95;13.93;;;;;;;;;;5092779;28;20040;-59
2023/10/19 11:53:15;;;;;;;22.23;14.57;;;;;;;;;;5092218;28;20434;-59
2023/10/19 11:55:41;;;;;;;20.95;13.77;;;;;;;;;;5084809;28;20055;-59
2023/10/19 11:58:13;;;;;;;22.70;14.15;;;;;;;;;;5079304;28;20048;-59
2023/10/19 12:00:43;;;;;;;21.55;13.65;;;;;;;;;;5093350;28;20054;-59
2023/10/19 12:03:12;;;;;;;17.95;12.65;;;;;;;;;;5085673;28;20409;-59
2023/10/19 12:05:38;;;;;;;21.35;13.48;;;;;;;;;;5093282;28;20099;-59
2023/10/19 12:08:06;;;;;;;19.65;11.43;;;;;;;;;;5073524;28;20044;-59
2023/10/19 12:10:35;;;;;;;20.48;11.85;;;;;;;;;;5079162;28;20052;-59
2023/10/19 12:13:05;;;;;;;26.10;12.10;;;;;;;;;;5093129;28;20048;-59
2023/10/19 12:15:32;;;;;;;15.45;10.63;;;;;;;;;;5087956;28;20084;-65
2023/10/19 12:17:59;;;;;;;18.10;10.55;;;;;;;;;;5069831;28;20045;-59
2023/10/19 12:20:26;;;;;;;18.23;10.35;;;;;;;;;;5082398;28;20483;-59
2023/10/19 12:22:53;;;;;;;15.20;10.38;;;;;;;;;;5093185;28;20052;-59
2023/10/19 12:25:28;;;;;;;14.80;9.57;;;;;;;;;;5072197;28;20080;-59
2023/10/19 12:27:55;;;;;;;15.80;9.77;;;;;;;;;;5064500;28;20553;-59
2023/10/19 12:30:22;;;;;;;11.65;8.45;;;;;;;;;;5092592;28;20064;-60
2023/10/19 12:32:51;;;;;;;12.60;8.88;;;;;;;;;;5079296;28;20051;-59
2023/10/19 12:35:19;;;;;;;11.57;7.72;;;;;;;;;;5085928;28;20043;-59
2023/10/19 12:37:51;;;;;;;10.20;7.90;;;;;;;;;;5084985;28;20051;-59
2023/10/19 12:40:28;;;;;;;10.90;8.43;;;;;;;;;;5091975;28;20032;-59
2023/10/19 12:42:55;;;;;;;10.48;7.25;;;;;;;;;;5071446;28;20518;-59
2023/10/19 12:45:28;;;;;;;10.38;7.15;;;;;;;;;;5078050;28;20469;-59
2023/10/19 12:47:54;;;;;;;10.13;7.40;;;;;;;;;;5092390;28;20048;-59
2023/10/19 12:50:22;;;;;;;10.48;7.68;;;;;;;;;;5085517;28;20055;-59
2023/10/19 12:52:51;;;;;;;13.80;7.15;;;;;;;;;;5091418;28;20541;-59
2023/10/19 12:55:19;;;;;;;8.90;6.63;;;;;;;;;;5085157;28;20067;-59
2023/10/19 12:57:45;;;;;;;10.30;6.75;;;;;;;;;;5092550;28;20412;-59
2023/10/19 13:00:25;;;;;;;12.60;7.57;;;;;;;;;;5083273;28;20107;-59
2023/10/19 13:02:51;;;;;;;11.93;7.32;;;;;;;;;;5092265;28;20101;-59
2023/10/19 13:05:20;;;;;;;9.77;7.50;;;;;;;;;;5087090;28;20119;-60
2023/10/19 13:07:46;;;;;;;13.70;8.75;;;;;;;;;;5091453;28;20404;-60
2023/10/19 13:10:13;;;;;;;13.73;9.55;;;;;;;;;;5079216;28;20085;-60
2023/10/19 13:12:40;;;;;;;15.18;9.48;;;;;;;;;;5082078;28;20036;-59
2023/10/19 13:15:15;;;;;;;22.17;10.93;;;;;;;;;;5091529;28;20505;-59
2023/10/19 13:17:43;;;;;;;18.48;11.63;;;;;;;;;;5091823;28;20050;-59
2023/10/19 13:20:16;;;;;;;17.45;11.07;;;;;;;;;;5078935;28;20044;-59
2023/10/19 13:22:42;;;;;;;18.05;12.75;;;;;;;;;;5091007;28;20062;-59
2023/10/19 13:27:58;;;;;;;18.92;12.40;;;;;;;;;;5066905;28;20075;-59
2023/10/19 13:30:24;;;;;;;20.98;12.75;;;;;;;;;;5070221;28;20052;-59
2023/10/19 13:32:50;;;;;;;25.17;14.20;;;;;;;;;;5090265;28;20040;-59
2023/10/19 13:35:17;;;;;;;24.25;13.77;;;;;;;;;;5088610;28;20101;-59
2023/10/19 13:37:43;;;;;;;21.15;13.02;;;;;;;;;;5090979;28;20052;-59
2023/10/19 13:40:10;;;;;;;20.60;13.73;;;;;;;;;;5088496;28;20077;-59
2023/10/19 13:42:37;;;;;;;22.23;13.23;;;;;;;;;;5083793;28;20194;-59
2023/10/19 13:45:04;;;;;;;27.77;13.95;;;;;;;;;;5091420;28;20197;-59
2023/10/19 13:47:33;;;;;;;26.60;15.20;;;;;;;;;;5091567;28;20201;-60
2023/10/19 13:50:00;;;;;;;26.90;14.48;;;;;;;;;;5083451;28;20086;-59
2023/10/19 13:52:26;;;;;;;26.08;15.57;;;;;;;;;;5082582;28;20048;-59
2023/10/19 13:54:52;;;;;;;23.50;15.30;;;;;;;;;;5091202;28;20495;-59
2023/10/19 13:57:19;;;;;;;28.40;15.27;;;;;;;;;;5090391;28;20110;-59
2023/10/19 13:59:45;;;;;;;24.65;16.10;;;;;;;;;;5086155;28;20047;-59
2023/10/19 14:02:11;;;;;;;30.83;16.95;;;;;;;;;;5091343;28;20036;-60
2023/10/19 14:04:37;;;;;;;27.52;17.42;;;;;;;;;;5090231;28;20076;-59
2023/10/19 14:07:04;;;;;;;30.25;18.08;;;;;;;;;;5091036;28;20111;-59
2023/10/19 14:09:31;;;;;;;30.83;19.20;;;;;;;;;;5085670;28;20108;-59
2023/10/19 14:11:57;;;;;;;32.15;19.70;;;;;;;;;;5087711;28;20043;-59
2023/10/19 14:14:24;;;;;;;29.00;18.95;;;;;;;;;;5080920;28;20373;-59
2023/10/19 14:16:50;;;;;;;27.77;19.48;;;;;;;;;;5090312;28;20419;-59
2023/10/19 14:19:17;;;;;;;31.30;18.75;;;;;;;;;;5088076;28;20136;-59
2023/10/19 14:21:46;;;;;;;25.73;17.50;;;;;;;;;;5073403;28;20052;-59
2023/10/19 14:24:12;;;;;;;26.23;17.90;;;;;;;;;;5075139;28;20051;-60
2023/10/19 14:26:38;;;;;;;24.80;16.50;;;;;;;;;;5090605;28;20119;-60
2023/10/19 14:29:04;;;;;;;26.95;17.17;;;;;;;;;;5089018;28;20081;-60
2023/10/19 14:31:31;;;;;;;27.45;16.48;;;;;;;;;;5074768;28;20052;-59
2023/10/19 14:33:58;;;;;;;23.88;16.20;;;;;;;;;;5084569;28;20088;-59
2023/10/19 14:36:24;;;;;;;27.08;15.93;;;;;;;;;;5090640;28;20464;-60
2023/10/19 14:38:50;;;;;;;27.13;15.93;;;;;;;;;;5081514;28;20123;-59
2023/10/19 14:41:16;;;;;;;29.40;16.33;;;;;;;;;;5068772;28;20036;-59
2023/10/19 14:43:43;;;;;;;25.38;14.73;;;;;;;;;;5069009;28;20040;-60
2023/10/19 14:46:09;;;;;;;23.48;14.48;;;;;;;;;;5080524;28;20044;-59
2023/10/19 14:48:36;;;;;;;27.88;15.02;;;;;;;;;;5063549;28;20081;-59
2023/10/19 14:51:02;;;;;;;20.50;13.98;;;;;;;;;;5068493;28;20121;-59
2023/10/19 14:53:28;;;;;;;24.27;14.32;;;;;;;;;;5072747;28;20119;-59
2023/10/19 14:55:57;;;;;;;21.33;13.93;;;;;;;;;;5073860;28;20052;-59
2023/10/19 14:58:25;;;;;;;23.80;13.98;;;;;;;;;;5069121;28;20129;-59
2023/10/19 15:00:55;;;;;;;24.67;13.23;;;;;;;;;;5067837;28;20494;-60
2023/10/19 15:03:23;;;;;;;22.38;12.35;;;;;;;;;;5068560;28;20396;-59
2023/10/19 15:05:58;;;;;;;21.50;11.88;;;;;;;;;;5066572;28;20118;-60
2023/10/19 15:08:28;;;;;;;19.20;12.93;;;;;;;;;;5069288;28;20463;-60